< Cyclone 199110 1992 Season Cyclone 199202 >
Cyclone 199201 (GRAHAM)
General InformationTrack Information on Google MapsDetailed Wind InformationList of All Images || ResourceGoogle EarthGE AnimationAtom FeedGeoJSON
Detalied Best Track (Time Zone = UTC)
Year Month Day Hour Lat. Long. Pressure (hPa) Wind (kt) Class Image Chart
1991 12 2 00 -4.9 95.0 1000 31 2 Image --
1991 12 2 06 -5.2 94.8 1000 31 2 Image --
1991 12 2 12 -5.5 94.6 1000 31 2 Image --
1991 12 2 18 -5.8 94.4 1000 31 2 Image --
1991 12 3 00 -6.1 94.3 995 39 3 Image --
1991 12 3 06 -6.6 94.0 990 47 3 Image --
1991 12 3 12 -7.0 93.7 985 54 4 Image --
1991 12 3 18 -7.4 93.5 975 66 5 Image --
1991 12 4 00 -7.9 93.4 965 80 5 Image --
1991 12 4 06 -8.1 93.5 955 89 5 Image --
1991 12 4 12 -8.4 93.6 945 99 5 Image --
1991 12 4 18 -8.9 93.9 935 109 5 Image --
1991 12 5 00 -9.1 94.6 930 113 5 Image --
1991 12 5 03 -9.2 95.1 925 117 5 Image --
1991 12 5 06 -9.4 95.6 920 123 5 Image --
1991 12 5 09 -9.7 95.8 915 126 5 Image --
1991 12 5 12 -10.0 96.0 915 126 5 Image --
1991 12 5 15 -10.4 96.2 915 126 5 Image --
1991 12 5 18 -10.7 96.5 920 123 5 Image --
1991 12 5 21 -10.9 97.1 925 117 5 Image --
1991 12 6 00 -11.1 97.6 930 113 5 Image --
1991 12 6 03 -11.2 98.1 935 109 5 Image --
1991 12 6 06 -11.3 98.6 940 103 5 Image --
1991 12 6 09 -11.4 99.0 945 99 5 Image --
1991 12 6 12 -11.5 99.4 950 95 5 Image --
1991 12 6 18 -11.7 100.2 965 80 5 Image --
1991 12 7 00 -11.9 101.1 975 66 5 Image --
1991 12 7 06 -12.0 101.7 980 60 4 Image --
1991 12 7 12 -12.1 102.2 985 54 4 Image --
1991 12 7 18 -12.2 102.7 990 47 3 Image --
1991 12 8 00 -12.3 103.2 995 39 3 Image --
1991 12 8 06 -12.4 103.8 995 39 3 Image --
1991 12 8 12 -12.9 104.0 995 39 3 Image --
1991 12 8 18 -13.4 104.0 995 39 3 Image --
1991 12 9 00 -13.9 104.0 995 39 3 Image --
1991 12 9 06 -14.1 104.0 995 39 3 Image --
1991 12 9 12 -14.4 104.6 995 39 3 Image --
1991 12 9 18 -14.6 104.8 995 39 3 Image --
1991 12 10 00 -15.0 104.9 1000 31 2 Image --
1991 12 10 06 -14.9 104.8 1005 23 2 Image --
1991 12 10 12 -14.9 104.5 1005 23 2 Image --
< Cyclone 199110 1992 Season Cyclone 199202 >

Help